Poling, Indiana
Current Conditions -  °F | °C
As of 9:35 AM on Tuesday 21 Oct 2014 (Local Time) from KVES Reporting Station
Overcast Overcast  
Wind Chill: 41°   Ceiling: 1400
Heat Index: 46°   Visibility: 10mi
Dew Point: 45°   Wind: 13mph
Humidity: 93%   Direction: 330°NNW
Pressure: 30.01"   Gusts: NA
Location:  40.5419°N, 84.8968°W
Report Text: KVES 211335Z AUTO 33011KT 10SM BKN014 OVC021 08/07 A3001 RMK AO2
Loading
Personal Weather Stations






























Interactive Weather Map New forecast layout! Learn more

10-Day Weather Forecast

Advertisements
Track Severe Weather on mobile